Time;durP1;ratioP1;P1;durP2;ratioP2;P2;SDS_P1;SDS_P2;PMS_P1;PMS_P2;Temp;Humidity;BMP_temperature;BMP_pressure;BME280_temperature;BME280_humidity;BME280_pressure;Samples;Min_cycle;Max_cycle;Signal;HPM_P1;HPM_P2
2024/01/17 00:00:38;;;;;;;3.43;3.10;;;;;;;;;;4992874;28;20207;-60
2024/01/17 00:03:07;;;;;;;6.63;5.07;;;;;;;;;;4993932;28;20352;-61
2024/01/17 00:05:34;;;;;;;5.63;3.13;;;;;;;;;;4997187;28;20733;-61
2024/01/17 00:08:01;;;;;;;5.13;4.07;;;0.80;99.90;;;;;;5004700;28;20232;-60
2024/01/17 00:10:28;;;;;;;5.53;3.90;;;0.80;99.90;;;;;;5004178;28;20196;-61
2024/01/17 00:12:55;;;;;;;3.73;2.77;;;;;;;;;;4993246;28;20604;-61
2024/01/17 00:15:23;;;;;;;3.90;3.60;;;;;;;;;;4991579;28;20207;-61
2024/01/17 00:17:50;;;;;;;4.47;3.43;;;;;;;;;;5001569;28;20193;-61
2024/01/17 00:20:19;;;;;;;5.27;3.60;;;;;;;;;;4991830;28;20201;-60
2024/01/17 00:22:46;;;;;;;7.20;4.00;;;;;;;;;;4992892;28;20800;-60
2024/01/17 00:25:13;;;;;;;6.37;3.93;;;;;;;;;;4994714;28;20255;-60
2024/01/17 00:27:40;;;;;;;3.53;2.70;;;;;;;;;;5005269;28;20239;-61
2024/01/17 00:30:08;;;;;;;3.77;3.13;;;0.70;99.90;;;;;;5006200;28;20267;-60
2024/01/17 00:32:35;;;;;;;6.60;4.77;;;;;;;;;;4992433;28;20230;-61
2024/01/17 00:35:03;;;;;;;3.37;3.03;;;;;;;;;;4998756;28;20200;-60
2024/01/17 00:37:32;;;;;;;4.30;2.67;;;;;;;;;;5004253;28;20201;-60
2024/01/17 00:39:58;;;;;;;5.53;2.53;;;0.70;99.90;;;;;;5012744;28;20201;-60
2024/01/17 00:42:26;;;;;;;6.67;2.83;;;0.90;99.90;;;;;;5011723;28;20271;-61
2024/01/17 00:44:53;;;;;;;3.03;2.67;;;0.90;99.90;;;;;;5011082;28;20293;-61
2024/01/17 00:47:21;;;;;;;5.27;2.53;;;;;;;;;;5001481;28;20662;-61
2024/01/17 00:49:48;;;;;;;4.13;2.83;;;;;;;;;;5007825;28;20286;-61
2024/01/17 00:52:15;;;;;;;2.43;2.03;;;;;;;;;;5011667;28;20644;-61
2024/01/17 00:54:44;;;;;;;7.67;4.30;;;;;;;;;;5012661;28;20263;-61
2024/01/17 00:57:14;;;;;;;5.80;2.77;;;;;;;;;;5000251;28;20200;-61
2024/01/17 00:59:41;;;;;;;3.93;3.50;;;;;;;;;;4993445;28;20216;-62
2024/01/17 01:02:12;;;;;;;4.70;3.87;;;;;;;;;;4991869;28;20295;-60
2024/01/17 01:04:39;;;;;;;6.03;4.17;;;;;;;;;;4992494;28;20204;-61
2024/01/17 01:07:10;;;;;;;6.13;3.80;;;;;;;;;;4999073;28;20276;-61
2024/01/17 01:09:37;;;;;;;4.17;3.63;;;;;;;;;;4998641;28;20288;-60
2024/01/17 01:12:07;;;;;;;2.90;2.70;;;0.80;99.90;;;;;;4991486;28;20225;-60
2024/01/17 01:14:34;;;;;;;3.47;3.17;;;0.70;99.90;;;;;;4989556;28;20209;-60
2024/01/17 01:17:01;;;;;;;4.23;3.70;;;0.70;99.90;;;;;;5006139;28;20270;-60
2024/01/17 01:19:28;;;;;;;6.20;3.07;;;0.70;99.90;;;;;;4991899;28;20291;-60
2024/01/17 01:21:55;;;;;;;3.67;3.37;;;0.70;99.90;;;;;;4991231;28;20655;-60
2024/01/17 01:24:22;;;;;;;7.27;4.10;;;;;;;;;;4990025;28;20256;-61
2024/01/17 01:26:49;;;;;;;5.10;3.27;;;0.80;99.90;;;;;;4998996;28;20256;-60
2024/01/17 01:29:17;;;;;;;3.43;3.13;;;0.70;99.90;;;;;;5010961;28;20259;-60
2024/01/17 01:31:44;;;;;;;4.60;3.80;;;0.70;99.90;;;;;;4999298;28;20228;-60
2024/01/17 01:34:11;;;;;;;3.87;3.50;;;0.70;99.90;;;;;;4991378;28;20290;-60
2024/01/17 01:36:38;;;;;;;4.13;3.70;;;0.70;99.90;;;;;;4988361;28;20264;-60
2024/01/17 01:39:05;;;;;;;6.87;3.93;;;0.80;99.90;;;;;;4987360;28;20262;-60
2024/01/17 01:54:25;;;;;;;3.87;3.53;;;;;;;;;;4991611;28;20182;-60
2024/01/17 01:56:53;;;;;;;8.37;3.90;;;;;;;;;;4987193;28;20211;-60
2024/01/17 01:59:21;;;;;;;4.27;3.67;;;;;;;;;;4988422;28;20211;-60
2024/01/17 02:01:49;;;;;;;4.77;4.20;;;;;;;;;;4992450;28;20232;-61
2024/01/17 02:04:16;;;;;;;5.13;4.73;;;;;;;;;;4994726;28;20224;-60
2024/01/17 02:06:45;;;;;;;5.70;4.43;;;;;;;;;;4993174;28;20240;-60
2024/01/17 02:09:12;;;;;;;5.97;5.43;;;;;;;;;;4994242;28;20648;-59
2024/01/17 02:11:41;;;;;;;4.63;4.27;;;;;;;;;;5000689;28;20225;-59
2024/01/17 02:14:08;;;;;;;7.20;5.27;;;;;;;;;;4998723;28;20202;-60
2024/01/17 02:16:35;;;;;;;7.13;4.57;;;;;;;;;;4999980;28;20288;-59
2024/01/17 02:19:03;;;;;;;6.37;4.77;;;;;;;;;;4993869;28;20767;-59
2024/01/17 02:21:31;;;;;;;5.47;4.97;;;;;;;;;;4995716;28;20221;-60
2024/01/17 02:24:13;;;;;;;6.07;5.03;;;;;;;;;;5000371;28;20244;-60
2024/01/17 02:26:42;;;;;;;5.03;3.90;;;;;;;;;;4997269;28;20632;-61
2024/01/17 02:29:09;;;;;;;6.77;4.53;;;;;;;;;;4997291;28;20312;-60
2024/01/17 02:31:36;;;;;;;5.67;5.03;;;;;;;;;;5005552;28;20216;-60
2024/01/17 02:34:04;;;;;;;6.77;4.73;;;;;;;;;;5002924;28;20208;-60
2024/01/17 02:36:31;;;;;;;7.30;5.10;;;;;;;;;;5015248;28;20747;-60
2024/01/17 02:38:58;;;;;;;5.70;3.93;;;;;;;;;;5015139;28;20239;-60
2024/01/17 02:41:25;;;;;;;5.30;4.20;;;;;;;;;;5000105;28;20282;-60
2024/01/17 02:43:54;;;;;;;5.03;3.83;;;;;;;;;;5006708;28;20200;-60
2024/01/17 02:46:21;;;;;;;6.97;4.83;;;;;;;;;;5014975;28;20196;-60
2024/01/17 02:48:48;;;;;;;4.43;4.03;;;;;;;;;;5014806;28;20278;-60
2024/01/17 02:51:15;;;;;;;7.37;4.80;;;;;;;;;;5013209;28;20581;-61
2024/01/17 02:53:42;;;;;;;5.50;4.77;;;;;;;;;;5007492;28;20252;-60
2024/01/17 02:56:10;;;;;;;4.53;4.13;;;;;;;;;;5004706;28;20256;-60
2024/01/17 02:58:37;;;;;;;7.07;5.37;;;;;;;;;;5015154;28;20201;-61
2024/01/17 03:01:06;;;;;;;5.90;4.87;;;;;;;;;;5001784;28;20210;-60
2024/01/17 03:03:33;;;;;;;8.40;5.20;;;;;;;;;;4994765;28;20248;-60
2024/01/17 03:06:00;;;;;;;8.60;4.43;;;;;;;;;;4993541;28;20245;-59
2024/01/17 03:08:27;;;;;;;6.17;4.40;;;;;;;;;;5006232;28;20214;-60
2024/01/17 03:10:54;;;;;;;4.30;3.77;;;;;;;;;;5003099;28;20199;-60
2024/01/17 03:13:22;;;;;;;7.53;4.70;;;;;;;;;;4994210;28;20256;-60
2024/01/17 03:15:49;;;;;;;6.00;4.77;;;;;;;;;;4994996;28;20779;-60
2024/01/17 03:18:17;;;;;;;5.47;4.47;;;;;;;;;;4993242;28;20194;-60
2024/01/17 03:20:45;;;;;;;4.90;4.13;;;;;;;;;;5005688;28;20282;-60
2024/01/17 03:23:12;;;;;;;6.00;4.77;;;;;;;;;;4993972;28;20686;-60
2024/01/17 03:25:39;;;;;;;4.83;4.30;;;;;;;;;;4994965;28;20202;-60
2024/01/17 03:28:06;;;;;;;6.93;4.30;;;;;;;;;;4992556;28;20257;-60
2024/01/17 03:30:34;;;;;;;4.30;3.87;;;;;;;;;;4992328;28;20199;-60
2024/01/17 03:33:01;;;;;;;5.03;3.67;;;0.70;99.90;;;;;;5001646;28;20237;-60
2024/01/17 03:35:29;;;;;;;7.43;3.83;;;;;;;;;;5014163;28;20259;-60
2024/01/17 03:37:57;;;;;;;7.10;4.43;;;;;;;;;;5014392;28;20246;-60
2024/01/17 03:40:24;;;;;;;5.23;4.37;;;;;;;;;;4994146;28;20256;-59
2024/01/17 03:42:52;;;;;;;5.37;3.70;;;;;;;;;;4994371;28;20233;-60
2024/01/17 03:45:19;;;;;;;4.83;3.93;;;;;;;;;;5002132;28;20213;-60
2024/01/17 03:47:46;;;;;;;4.30;3.90;;;;;;;;;;5008640;28;20236;-60
2024/01/17 03:50:13;;;;;;;8.07;5.87;;;;;;;;;;4996058;28;20661;-60
2024/01/17 03:52:42;;;;;;;5.50;4.93;;;;;;;;;;4994242;28;20645;-60
2024/01/17 03:55:09;;;;;;;8.77;7.00;;;;;;;;;;4994448;28;20205;-60
2024/01/17 03:57:37;;;;;;;10.80;8.20;;;;;;;;;;5000703;28;20736;-60
2024/01/17 04:00:04;;;;;;;12.33;8.33;;;;;;;;;;4995102;28;20197;-61
2024/01/17 04:02:31;;;;;;;13.63;9.50;;;;;;;;;;4993385;28;20232;-60
2024/01/17 04:04:59;;;;;;;13.63;11.97;;;;;;;;;;4995449;28;20260;-60
2024/01/17 04:07:26;;;;;;;19.13;12.73;;;;;;;;;;4994044;28;20755;-60
2024/01/17 04:09:54;;;;;;;21.07;13.70;;;;;;;;;;5001079;28;20277;-60
2024/01/17 04:12:22;;;;;;;21.43;12.80;;;;;;;;;;5004736;28;20644;-60
2024/01/17 04:14:49;;;;;;;21.13;14.87;;;;;;;;;;5013617;28;20676;-60
2024/01/17 04:17:16;;;;;;;21.23;14.60;;;;;;;;;;5013457;28;20210;-60
2024/01/17 04:19:43;;;;;;;25.87;17.87;;;;;;;;;;5001540;28;20263;-60
2024/01/17 04:22:10;;;;;;;26.73;19.00;;;;;;;;;;4994058;28;20713;-61
2024/01/17 04:24:37;;;;;;;28.37;16.77;;;;;;;;;;5005914;28;20243;-60
2024/01/17 04:27:10;;;;;;;24.67;17.50;;;;;;;;;;5013677;28;20205;-60
2024/01/17 04:29:37;;;;;;;33.43;21.63;;;;;;;;;;5001360;28;20270;-61
2024/01/17 04:32:09;;;;;;;25.40;18.00;;;;;;;;;;4992427;28;20225;-60
2024/01/17 04:34:36;;;;;;;27.10;19.83;;;;;;;;;;4989184;28;20205;-60
2024/01/17 04:37:03;;;;;;;28.37;20.27;;;;;;;;;;4999551;28;20210;-61
2024/01/17 04:39:31;;;;;;;34.33;19.70;;;;;;;;;;5004579;28;20198;-61
2024/01/17 04:42:00;;;;;;;28.27;18.97;;;;;;;;;;5012100;28;20223;-60
2024/01/17 04:44:30;;;;;;;29.77;20.03;;;;;;;;;;5013007;28;20590;-60
2024/01/17 04:46:57;;;;;;;34.87;20.63;;;;;;;;;;5005218;28;20211;-60
2024/01/17 04:49:26;;;;;;;31.93;20.77;;;;;;;;;;4990272;28;20220;-61
2024/01/17 04:51:53;;;;;;;27.43;18.33;;;;;;;;;;4999706;28;20254;-60
2024/01/17 04:54:21;;;;;;;25.33;16.83;;;;;;;;;;5003815;28;20298;-60
2024/01/17 04:56:48;;;;;;;28.57;16.37;;;;;;;;;;5010942;28;20267;-60
2024/01/17 04:59:15;;;;;;;17.33;13.90;;;;;;;;;;4991525;28;20203;-60
2024/01/17 05:01:44;;;;;;;22.40;12.77;;;;;;;;;;4998020;28;20233;-60
2024/01/17 05:04:12;;;;;;;21.10;14.03;;;;;;;;;;5010716;28;20202;-60
2024/01/17 05:06:39;;;;;;;19.60;13.27;;;;;;;;;;5007935;28;20208;-61
2024/01/17 05:09:08;;;;;;;16.57;11.43;;;;;;;;;;4994557;28;20233;-60
2024/01/17 05:11:35;;;;;;;18.47;11.33;;;;;;;;;;4989948;28;20234;-60
2024/01/17 05:14:02;;;;;;;20.23;12.13;;;;;;;;;;4992553;28;20205;-60
2024/01/17 05:16:30;;;;;;;15.90;11.23;;;;;;;;;;4992556;28;20629;-60
2024/01/17 05:18:58;;;;;;;15.23;9.33;;;;;;;;;;4997718;28;20203;-60
2024/01/17 05:21:26;;;;;;;12.53;8.77;;;;;;;;;;4983646;28;20221;-60
2024/01/17 05:23:53;;;;;;;16.53;9.10;;;;;;;;;;4992390;28;20209;-60
2024/01/17 05:26:20;;;;;;;15.13;8.33;;;;;;;;;;4992334;28;20251;-60
2024/01/17 05:28:48;;;;;;;13.63;9.37;;;;;;;;;;4990302;28;20284;-60
2024/01/17 05:31:15;;;;;;;12.10;8.13;;;;;;;;;;4993588;28;20722;-60
2024/01/17 05:33:42;;;;;;;11.67;8.13;;;;;;;;;;4990049;28;20217;-60
2024/01/17 05:36:11;;;;;;;10.77;8.23;;;;;;;;;;4990291;28;20201;-61
2024/01/17 05:38:38;;;;;;;9.87;8.37;;;;;;;;;;4991880;28;20252;-60
2024/01/17 05:41:06;;;;;;;10.87;8.30;;;;;;;;;;4991385;28;20259;-60
2024/01/17 05:43:33;;;;;;;12.90;7.90;;;;;;;;;;4992399;28;20256;-60
2024/01/17 05:46:00;;;;;;;13.47;8.43;;;;;;;;;;4992240;28;20642;-60
2024/01/17 05:48:28;;;;;;;15.93;8.47;;;;;;;;;;4991987;28;20233;-60
2024/01/17 05:50:55;;;;;;;14.10;8.10;;;;;;;;;;4991137;28;20756;-60
2024/01/17 05:53:24;;;;;;;11.03;8.00;;;;;;;;;;4991840;28;20203;-61
2024/01/17 05:55:52;;;;;;;11.07;8.63;;;;;;;;;;4992246;28;20208;-59
2024/01/17 05:58:19;;;;;;;14.40;8.50;;;;;;;;;;4992091;28;20213;-60
2024/01/17 06:00:46;;;;;;;19.13;8.13;;;;;;;;;;4991054;28;20217;-60
2024/01/17 06:03:14;;;;;;;16.57;7.43;;;;;;;;;;4991785;28;20850;-60
2024/01/17 06:05:41;;;;;;;18.03;9.37;;;;;;;;;;4992055;28;20210;-60
2024/01/17 06:08:09;;;;;;;13.90;9.33;;;;;;;;;;4990104;28;20200;-60
2024/01/17 06:10:40;;;;;;;10.40;8.23;;;;;;;;;;4991122;28;20229;-60
2024/01/17 06:13:09;;;;;;;10.80;7.83;;;;;;;;;;4992417;28;20231;-59
2024/01/17 06:15:36;;;;;;;12.03;8.43;;;;;;;;;;4991861;28;20251;-60
2024/01/17 06:18:04;;;;;;;7.90;6.47;;;;;;;;;;4991481;28;20216;-60
2024/01/17 06:20:31;;;;;;;10.27;7.03;;;;;;;;;;4990985;28;20630;-60
2024/01/17 06:22:58;;;;;;;10.93;6.90;;;;;;;;;;4991925;28;20228;-60
2024/01/17 06:25:26;;;;;;;11.43;5.37;;;;;;;;;;4991648;28;20203;-60
2024/01/17 06:27:56;;;;;;;10.80;6.70;;;;;;;;;;4991587;28;20252;-60
2024/01/17 06:30:24;;;;;;;8.70;5.73;;;;;;;;;;4990698;28;20278;-60
2024/01/17 06:32:51;;;;;;;10.43;6.53;;;;;;;;;;4991503;28;20721;-60
2024/01/17 06:35:18;;;;;;;11.50;5.93;;;;;;;;;;4991398;28;20209;-59
2024/01/17 06:37:46;;;;;;;11.27;6.27;;;;;;;;;;4989972;28;20211;-60
2024/01/17 06:40:14;;;;;;;13.57;6.83;;;;;;;;;;4991577;28;20255;-60
2024/01/17 06:42:41;;;;;;;7.60;5.90;;;;;;;;;;4991448;28;20244;-60
2024/01/17 06:45:11;;;;;;;11.77;5.67;;;;;;;;;;4991637;28;20206;-61
2024/01/17 06:47:38;;;;;;;6.30;5.57;;;;;;;;;;4997412;28;20293;-60
2024/01/17 06:50:06;;;;;;;4.83;4.20;;;;;;;;;;4997761;28;20231;-60
2024/01/17 06:52:33;;;;;;;5.40;4.00;;;;;;;;;;4994279;28;20275;-60
2024/01/17 06:55:00;;;;;;;8.37;4.90;;;;;;;;;;4995182;28;20259;-59
2024/01/17 06:57:28;;;;;;;4.43;3.57;;;;;;;;;;4993672;28;20207;-60
2024/01/17 06:59:55;;;;;;;5.87;2.77;;;;;;;;;;4995270;28;20242;-60
2024/01/17 07:02:24;;;;;;;5.00;2.90;;;;;;;;;;4993890;28;20237;-61
2024/01/17 07:04:52;;;;;;;3.33;2.43;;;;;;;;;;4995058;28;20208;-60
2024/01/17 07:07:19;;;;;;;3.60;2.07;;;;;;;;;;5001083;28;20209;-60
2024/01/17 07:09:47;;;;;;;3.73;2.50;;;;;;;;;;5001408;28;20258;-59
2024/01/17 07:12:14;;;;;;;3.83;1.90;;;;;;;;;;4992375;28;20233;-60
2024/01/17 07:14:41;;;;;;;2.03;1.73;;;;;;;;;;4995078;28;20209;-60
2024/01/17 07:17:08;;;;;;;1.87;1.60;;;;;;;;;;4999878;28;20201;-60
2024/01/17 07:19:38;;;;;;;1.60;1.50;;;;;;;;;;4994239;28;20205;-60
2024/01/17 07:22:06;;;;;;;2.37;2.10;;;;;;;;;;4994022;28;20609;-60
2024/01/17 07:24:33;;;;;;;3.13;1.17;;;;;;;;;;4994588;28;20228;-60
2024/01/17 07:27:00;;;;;;;4.30;1.50;;;;;;;;;;4995515;28;20205;-60
2024/01/17 07:29:28;;;;;;;4.40;1.23;;;;;;;;;;4994444;28;20708;-60
2024/01/17 07:31:55;;;;;;;2.13;2.03;;;;;;;;;;4993116;28;20225;-60
2024/01/17 07:34:22;;;;;;;2.70;1.60;;;;;;;;;;4990996;28;20201;-60
2024/01/17 07:36:52;;;;;;;1.53;1.20;;;;;;;;;;4994064;28;20625;-61
2024/01/17 07:39:21;;;;;;;2.13;1.20;;;;;;;;;;4991519;28;20293;-61
2024/01/17 07:41:48;;;;;;;1.90;1.63;;;;;;;;;;4992053;28;20224;-60
2024/01/17 07:44:17;;;;;;;1.77;1.53;;;;;;;;;;4993949;28;20206;-60
2024/01/17 07:46:47;;;;;;;2.30;1.63;;;;;;;;;;4994677;28;20210;-60
2024/01/17 07:49:14;;;;;;;0.93;0.93;;;;;;;;;;4993188;28;20218;-60
2024/01/17 07:51:42;;;;;;;1.47;1.37;;;;;;;;;;4990117;28;20313;-60
2024/01/17 07:54:10;;;;;;;0.87;0.70;;;;;;;;;;4993763;28;20202;-60
2024/01/17 07:56:38;;;;;;;1.37;0.80;;;;;;;;;;4993637;28;20206;-60
2024/01/17 07:59:07;;;;;;;1.83;0.97;;;;;;;;;;4993109;28;20204;-61
2024/01/17 08:01:34;;;;;;;3.43;1.20;;;;;;;;;;4992648;28;20289;-61
2024/01/17 08:04:01;;;;;;;2.40;1.10;;;;;;;;;;4993763;28;20248;-60
2024/01/17 08:06:28;;;;;;;1.30;1.20;;;;;;;;;;4996778;28;20204;-61
2024/01/17 08:08:56;;;;;;;3.67;0.83;;;;;;;;;;5023949;22;20233;-58
2024/01/17 08:11:24;;;;;;;2.10;0.90;;;;;;;;;;4991789;28;20209;-58
2024/01/17 08:13:52;;;;;;;2.73;0.70;;;;;;;;;;4993007;28;20341;-58
2024/01/17 08:16:19;;;;;;;0.93;0.83;;;;;;;;;;4993181;28;20252;-58
2024/01/17 08:18:48;;;;;;;1.60;0.80;;;;;;;;;;4993474;28;20714;-58
2024/01/17 08:21:15;;;;;;;0.70;0.70;;;;;;;;;;4993032;28;20216;-58
2024/01/17 08:23:43;;;;;;;3.50;1.20;;;;;;;;;;4994106;28;20684;-58
2024/01/17 08:26:10;;;;;;;1.27;0.73;;;;;;;;;;5000426;28;20212;-58
2024/01/17 08:28:39;;;;;;;1.20;1.10;;;;;;;;;;4995898;28;20222;-58
2024/01/17 08:31:06;;;;;;;0.83;0.80;;;;;;;;;;4996917;28;20318;-58
2024/01/17 08:33:36;;;;;;;2.33;1.00;;;;;;;;;;4996506;28;20201;-58
2024/01/17 08:36:03;;;;;;;3.58;1.30;;;;;;;;;;4994481;28;20456;-58
2024/01/17 08:38:30;;;;;;;1.40;1.30;;;;;;;;;;4992419;28;20257;-58
2024/01/17 08:40:58;;;;;;;1.67;1.03;;;;;;;;;;4991841;28;20202;-59
2024/01/17 08:43:25;;;;;;;4.40;1.60;;;;;;;;;;4992872;28;20211;-65
2024/01/17 08:45:54;;;;;;;2.07;1.80;;;;;;;;;;4993156;28;20202;-63
2024/01/17 08:48:21;;;;;;;1.93;1.83;;;;;;;;;;4993147;28;20207;-66
2024/01/17 08:50:49;;;;;;;4.00;1.70;;;;;;;;;;4992229;28;20316;-63
2024/01/17 08:53:16;;;;;;;1.07;1.00;;;;;;;;;;4992663;28;20257;-65
2024/01/17 08:55:44;;;;;;;0.87;0.87;;;;;;;;;;4992578;28;20653;-60
2024/01/17 08:58:11;;;;;;;1.53;0.77;;;;;;;;;;4992906;28;20203;-66
2024/01/17 09:00:38;;;;;;;2.10;0.90;;;;;;;;;;4992117;28;20221;-72
2024/01/17 09:03:08;;;;;;;2.07;1.20;;;;;;;;;;4992901;28;20214;-72
2024/01/17 09:05:36;;;;;;;1.23;1.10;;;;;;;;;;4992865;28;20209;-73
2024/01/17 09:08:04;;;;;;;1.27;1.17;;;;;;;;;;4992968;28;20293;-71
2024/01/17 09:10:31;;;;;;;6.03;2.60;;;;;;;;;;4982890;28;20301;-67
2024/01/17 09:12:58;;;;;;;1.50;1.00;;;;;;;;;;4992884;28;20598;-65
2024/01/17 09:15:25;;;;;;;0.77;0.77;;;;;;;;;;4992228;28;20218;-66
2024/01/17 09:17:52;;;;;;;2.30;0.70;;;;;;;;;;4992720;28;20202;-65
2024/01/17 09:20:21;;;;;;;1.70;1.00;;;;;;;;;;4991685;28;20603;-65
2024/01/17 09:22:48;;;;;;;1.57;0.70;;;;;;;;;;4992535;28;20236;-63
2024/01/17 09:25:17;;;;;;;2.30;0.80;;;;;;;;;;4991533;28;20206;-65
2024/01/17 09:27:44;;;;;;;1.67;1.57;;;;;;;;;;4992157;28;20202;-58
2024/01/17 09:30:12;;;;;;;2.50;0.73;;;;;;;;;;4992386;28;20654;-63
2024/01/17 09:32:39;;;;;;;2.10;1.10;;;;;;;;;;4991055;28;20210;-63
2024/01/17 09:35:08;;;;;;;0.90;0.90;;;;;;;;;;4992298;28;20207;-64
2024/01/17 09:37:36;;;;;;;1.97;1.13;;;;;;;;;;4990326;28;20220;-63
2024/01/17 09:40:05;;;;;;;5.17;0.87;;;;;;;;;;4992452;28;20257;-64
2024/01/17 09:42:32;;;;;;;3.60;1.03;;;;;;;;;;4991096;28;20229;-68
2024/01/17 09:45:00;;;;;;;2.63;1.23;;;;;;;;;;4999453;28;20265;-66
2024/01/17 09:47:28;;;;;;;2.30;1.00;;;;;;;;;;5000016;28;20238;-58
2024/01/17 09:49:55;;;;;;;1.90;0.93;;;;;;;;;;4997619;28;20253;-62
2024/01/17 09:52:23;;;;;;;1.20;1.03;;;;;;;;;;4992972;28;20205;-64
2024/01/17 09:54:53;;;;;;;0.77;0.77;;;;;;;;;;4991833;28;20204;-63
2024/01/17 09:57:24;;;;;;;1.03;0.87;;;;;;;;;;4992651;28;20264;-64
2024/01/17 09:59:51;;;;;;;1.70;1.07;;;;;;;;;;4991959;28;20217;-63
2024/01/17 10:02:20;;;;;;;1.20;0.60;;;;;;;;;;4991348;28;20201;-64
2024/01/17 10:04:49;;;;;;;2.20;1.20;;;;;;;;;;4992071;28;20910;-58
2024/01/17 10:07:16;;;;;;;1.43;0.80;;;;;;;;;;4992122;28;20297;-61
2024/01/17 10:09:44;;;;;;;2.17;1.23;;;;;;;;;;4991384;28;20300;-64
2024/01/17 10:12:13;;;;;;;0.70;0.70;;;;;;;;;;4994292;28;20212;-68
2024/01/17 10:14:41;;;;;;;0.83;0.60;;;;;;;;;;5005865;28;20204;-62
2024/01/17 10:17:10;;;;;;;0.43;0.40;;;;;;;;;;4994223;28;20210;-69
2024/01/17 10:19:37;;;;;;;2.00;0.90;;;;;;;;;;4992417;28;20596;-69
2024/01/17 10:22:10;;;;;;;2.30;0.90;;;5.30;99.90;;;;;;4994237;28;20964;-69
2024/01/17 10:24:38;;;;;;;1.10;0.90;;;5.40;99.90;;;;;;4995304;28;20269;-68
2024/01/17 10:27:06;;;;;;;1.70;1.20;;;5.50;99.90;;;;;;4995319;28;20204;-69
2024/01/17 10:29:38;;;;;;;1.60;0.93;;;5.50;99.90;;;;;;4996981;28;20300;-69
2024/01/17 10:32:06;;;;;;;2.83;0.80;;;5.60;99.90;;;;;;4994623;28;20661;-69
2024/01/17 10:34:33;;;;;;;1.73;0.90;;;5.60;99.90;;;;;;4995443;28;20206;-63
2024/01/17 10:37:05;;;;;;;0.80;0.73;;;5.70;99.90;;;;;;4995618;28;20218;-61
2024/01/17 10:39:32;;;;;;;3.23;0.70;;;5.70;99.90;;;;;;4995508;28;20308;-65
2024/01/17 10:41:59;;;;;;;1.80;0.70;;;5.80;99.90;;;;;;4994479;28;20269;-70
2024/01/17 10:44:27;;;;;;;1.90;0.50;;;5.90;99.90;;;;;;4994890;28;20208;-63
2024/01/17 10:46:56;;;;;;;3.40;0.73;;;6.00;99.90;;;;;;4995184;28;20231;-68
2024/01/17 10:49:24;;;;;;;0.60;0.60;;;6.00;99.90;;;;;;4994920;28;20226;-55
2024/01/17 10:51:58;;;;;;;2.40;0.60;;;6.20;99.90;;;;;;4994203;28;20363;-58
2024/01/17 10:54:27;;;;;;;1.20;0.63;;;6.20;99.90;;;;;;4994900;28;20294;-62
2024/01/17 10:56:55;;;;;;;0.60;0.60;;;6.40;99.90;;;;;;4995125;28;20211;-62
2024/01/17 10:59:23;;;;;;;1.00;0.50;;;;;;;;;;4994949;28;20226;-65
2024/01/17 11:01:51;;;;;;;1.87;0.30;;;;;;;;;;4994281;28;20478;-62
2024/01/17 11:04:24;;;;;;;3.37;0.50;;;;;;;;;;4995007;28;20240;-64
2024/01/17 11:06:52;;;;;;;3.00;0.50;;;;;;;;;;4994836;28;20230;-68
2024/01/17 11:09:21;;;;;;;0.77;0.60;;;;;;;;;;4994961;28;20233;-61
2024/01/17 11:11:49;;;;;;;4.43;0.60;;;;;;;;;;4993836;28;20733;-62
2024/01/17 11:14:18;;;;;;;0.53;0.53;;;;;;;;;;4994734;28;20207;-62
2024/01/17 11:16:48;;;;;;;1.60;0.33;;;;;;;;;;4995769;28;20198;-62
2024/01/17 11:19:16;;;;;;;1.00;0.70;;;;;;;;;;4994972;28;20234;-59
2024/01/17 11:21:46;;;;;;;1.70;0.40;;;;;;;;;;4994411;28;20642;-59
2024/01/17 11:24:19;;;;;;;0.97;0.40;;;;;;;;;;4994452;28;20205;-59
2024/01/17 11:26:49;;;;;;;0.60;0.60;;;;;;;;;;4994651;28;20690;-59
2024/01/17 11:29:21;;;;;;;5.00;2.13;;;;;;;;;;4995074;28;20226;-59
2024/01/17 11:31:51;;;;;;;8.93;4.23;;;;;;;;;;4993842;28;20282;-59
2024/01/17 11:34:18;;;;;;;22.63;7.33;;;;;;;;;;4993564;28;20712;-59
2024/01/17 11:36:47;;;;;;;24.33;7.83;;;;;;;;;;4994407;28;20288;-59
2024/01/17 11:39:16;;;;;;;7.90;3.97;;;;;;;;;;4994547;28;20234;-68
2024/01/17 11:41:44;;;;;;;1.40;1.07;;;;;;;;;;4993771;28;20201;-65
2024/01/17 11:44:12;;;;;;;2.40;0.90;;;;;;;;;;4991872;28;20206;-64
2024/01/17 11:46:39;;;;;;;1.93;0.60;;;;;;;;;;4994121;28;20197;-63
2024/01/17 11:49:07;;;;;;;0.97;0.80;;;;;;;;;;4988755;28;20229;-65
2024/01/17 11:51:35;;;;;;;2.93;0.77;;;;;;;;;;4986316;28;20232;-65
2024/01/17 11:54:05;;;;;;;0.53;0.40;;;;;;;;;;4993652;28;20232;-66
2024/01/17 11:56:33;;;;;;;1.23;0.33;;;;;;;;;;4993931;28;20203;-68
2024/01/17 11:59:06;;;;;;;3.30;0.40;;;;;;;;;;4993745;28;20772;-66
2024/01/17 12:01:43;;;;;;;1.37;0.40;;;;;;;;;;4993254;28;20594;-68
2024/01/17 12:04:11;;;;;;;0.50;0.30;;;;;;;;;;4993543;28;20304;-67
2024/01/17 12:06:39;;;;;;;0.30;0.30;;;;;;;;;;4993982;28;20225;-68
2024/01/17 12:09:15;;;;;;;8.93;7.43;;;;;;;;;;4993442;28;20316;-68
2024/01/17 12:11:42;;;;;;;9.57;8.67;;;;;;;;;;4986207;28;20260;-64
2024/01/17 12:14:10;;;;;;;10.60;9.43;;;;;;;;;;4993606;28;20235;-67
2024/01/17 12:16:37;;;;;;;12.60;10.00;;;;;;;;;;4994125;28;20239;-69
2024/01/17 12:19:04;;;;;;;12.83;10.30;;;;;;;;;;4995062;28;20326;-64
2024/01/17 12:21:31;;;;;;;12.50;10.57;;;;;;;;;;4993110;28;20194;-65
2024/01/17 12:23:59;;;;;;;13.30;10.53;;;;;;;;;;4993177;28;20218;-63
2024/01/17 12:26:28;;;;;;;14.83;11.77;;;;;;;;;;4993477;28;20764;-61
2024/01/17 12:29:06;;;;;;;15.73;11.30;;;;;;;;;;4993361;28;20304;-61
2024/01/17 12:31:34;;;;;;;12.73;10.70;;;;;;;;;;4993146;28;20225;-64
2024/01/17 12:34:01;;;;;;;14.90;12.10;;;;;;;;;;4993150;28;20645;-64
2024/01/17 12:36:28;;;;;;;14.87;10.63;;;;;;;;;;4993860;28;20216;-64
2024/01/17 12:38:55;;;;;;;17.27;13.43;;;;;;;;;;4993649;28;20285;-69
2024/01/17 12:41:23;;;;;;;17.37;13.33;;;;;;;;;;4992494;28;20207;-62
2024/01/17 12:43:51;;;;;;;15.73;12.83;;;5.00;99.90;;;;;;4992875;28;20200;-59
2024/01/17 12:46:20;;;;;;;17.40;14.10;;;;;;;;;;4994003;28;20297;-63
2024/01/17 12:48:58;;;;;;;15.23;13.33;;;4.90;99.90;;;;;;4993390;28;20305;-64
2024/01/17 12:51:26;;;;;;;17.53;13.93;;;4.90;99.90;;;;;;4992806;28;20253;-58
2024/01/17 12:53:54;;;;;;;22.67;16.40;;;4.90;99.90;;;;;;4993170;28;20201;-64
2024/01/17 12:56:21;;;;;;;18.97;14.20;;;4.90;99.90;;;;;;4993547;28;20265;-60
2024/01/17 12:58:48;;;;;;;19.47;14.10;;;4.90;99.90;;;;;;4993341;28;20258;-60
2024/01/17 13:01:17;;;;;;;17.03;12.97;;;4.80;99.90;;;;;;4992160;28;20284;-60
2024/01/17 13:03:45;;;;;;;17.27;13.27;;;4.80;99.90;;;;;;4992856;28;20234;-67
2024/01/17 13:06:13;;;;;;;19.33;13.67;;;4.80;99.90;;;;;;4992926;28;20296;-68
2024/01/17 13:08:40;;;;;;;31.90;21.90;;;4.70;99.90;;;;;;4992687;28;20236;-65
2024/01/17 13:11:17;;;;;;;33.40;20.87;;;4.80;99.90;;;;;;4991994;28;20317;-67
2024/01/17 13:13:44;;;;;;;36.83;23.47;;;4.80;99.90;;;;;;4992867;28;20287;-56
2024/01/17 13:16:13;;;;;;;22.80;18.50;;;4.90;99.90;;;;;;4992885;28;20774;-64
2024/01/17 13:18:42;;;;;;;18.07;14.47;;;4.90;99.90;;;;;;4992643;28;20234;-72
2024/01/17 13:21:12;;;;;;;18.40;14.87;;;4.90;99.90;;;;;;4991980;28;20675;-66
2024/01/17 13:23:40;;;;;;;16.23;14.30;;;4.90;99.90;;;;;;4992369;28;20225;-68
2024/01/17 13:26:08;;;;;;;19.73;14.27;;;5.00;99.90;;;;;;4993041;28;20623;-65
2024/01/17 13:28:35;;;;;;;20.87;15.37;;;;;;;;;;4984517;28;20248;-70
2024/01/17 13:31:03;;;;;;;19.30;14.87;;;;;;;;;;4991598;28;20225;-68
2024/01/17 13:33:31;;;;;;;18.33;14.90;;;4.90;99.90;;;;;;4995927;28;20299;-64
2024/01/17 13:36:00;;;;;;;20.73;15.40;;;5.00;99.90;;;;;;4992191;28;20217;-64
2024/01/17 13:38:27;;;;;;;20.57;14.97;;;5.00;99.90;;;;;;4992217;28;20283;-63
2024/01/17 13:40:54;;;;;;;23.70;16.70;;;5.00;99.90;;;;;;4991800;28;20213;-65
2024/01/17 13:43:21;;;;;;;21.67;14.93;;;;;;;;;;4991663;28;20268;-64
2024/01/17 13:45:49;;;;;;;17.73;14.50;;;5.10;99.90;;;;;;4992582;28;20236;-63
2024/01/17 13:48:16;;;;;;;22.63;15.97;;;5.10;99.90;;;;;;4990077;28;20203;-61
2024/01/17 13:50:44;;;;;;;34.43;16.67;;;5.10;99.90;;;;;;5010391;28;20230;-64
2024/01/17 13:53:28;;;;;;;24.87;15.37;;;5.20;99.90;;;;;;5020060;28;20223;-63
2024/01/17 13:55:57;;;;;;;27.17;18.03;;;5.30;99.90;;;;;;5016351;28;20240;-61
2024/01/17 13:58:24;;;;;;;25.40;15.47;;;5.10;99.90;;;;;;5016740;28;20206;-61
2024/01/17 14:00:55;;;;;;;25.90;16.47;;;5.10;99.90;;;;;;5001532;28;20624;-78
2024/01/17 14:03:22;;;;;;;21.10;15.10;;;5.00;99.90;;;;;;4996050;28;20205;-67
2024/01/17 14:05:49;;;;;;;22.57;15.03;;;5.00;99.90;;;;;;4996446;28;20231;-65
2024/01/17 14:08:17;;;;;;;20.43;15.10;;;5.00;99.90;;;;;;4996192;28;20746;-66
2024/01/17 14:10:45;;;;;;;17.07;13.73;;;4.90;99.90;;;;;;4995695;28;20227;-78
2024/01/17 14:13:13;;;;;;;17.30;13.60;;;5.30;99.90;;;;;;5050947;22;20283;-70
2024/01/17 14:15:42;;;;;;;17.10;13.57;;;4.80;99.90;;;;;;5034846;28;20305;-69
2024/01/17 14:18:09;;;;;;;15.63;12.40;;;4.80;99.90;;;;;;5035131;28;20198;-68
2024/01/17 14:20:36;;;;;;;14.80;12.40;;;4.70;99.90;;;;;;5027156;28;20210;-68
2024/01/17 14:23:04;;;;;;;20.90;13.30;;;4.80;99.90;;;;;;5024945;28;20225;-66
2024/01/17 14:25:33;;;;;;;14.50;12.23;;;4.70;99.90;;;;;;5023994;28;20208;-68
2024/01/17 14:28:01;;;;;;;15.63;12.47;;;4.80;99.90;;;;;;5026843;28;20205;-67